Time;durP1;ratioP1;P1;durP2;ratioP2;P2;SDS_P1;SDS_P2;PMS_P1;PMS_P2;Temp;Humidity;BMP_temperature;BMP_pressure;BME280_temperature;BME280_humidity;BME280_pressure;Samples;Min_cycle;Max_cycle;Signal;HPM_P1;HPM_P2
2023/01/12 00:01:40;;;;;;;24.57;4.70;;;8.10;99.90;;;;;;5095183;28;20293;-88
2023/01/12 00:04:07;;;;;;;25.83;4.50;;;8.10;99.90;;;;;;5094815;28;20039;-88
2023/01/12 00:06:33;;;;;;;33.67;5.27;;;8.10;99.90;;;;;;5111435;28;20309;-87
2023/01/12 00:09:02;;;;;;;30.30;5.23;;;8.10;99.90;;;;;;5113841;28;20278;-88
2023/01/12 00:11:29;;;;;;;26.37;4.40;;;8.20;99.90;;;;;;5116117;28;20372;-88
2023/01/12 00:13:55;;;;;;;28.57;5.23;;;8.20;99.90;;;;;;5115969;28;20382;-88
2023/01/12 00:16:36;;;;;;;27.40;4.90;;;8.20;99.90;;;;;;5098458;28;20339;-88
2023/01/12 00:19:04;;;;;;;29.37;4.47;;;8.20;99.90;;;;;;5116577;28;20188;-88
2023/01/12 00:22:30;;;;;;;30.33;4.53;;;8.30;99.90;;;;;;5098638;28;20293;-88
2023/01/12 00:24:30;;;;;;;28.43;5.20;;;8.30;99.90;;;;;;5106536;28;20435;-88
2023/01/12 00:26:58;;;;;;;31.27;4.33;;;8.30;99.90;;;;;;5098288;28;20392;-88
2023/01/12 00:29:25;;;;;;;26.33;4.87;;;8.30;99.90;;;;;;5098626;28;20347;-88
2023/01/12 00:31:52;;;;;;;29.73;4.87;;;8.30;99.90;;;;;;5115627;28;20285;-88
2023/01/12 00:34:18;;;;;;;27.00;4.20;;;8.30;99.90;;;;;;5115209;28;20282;-88
2023/01/12 00:36:45;;;;;;;29.57;5.17;;;8.30;99.90;;;;;;5115382;28;20744;-89
2023/01/12 00:39:12;;;;;;;24.43;4.27;;;8.20;99.90;;;;;;5115059;28;20094;-88
2023/01/12 00:47:10;;;;;;;22.10;4.10;;;8.20;99.90;;;;;;5115049;28;20285;-88
2023/01/12 00:49:37;;;;;;;17.20;3.70;;;8.30;99.90;;;;;;5098269;28;20435;-88
2023/01/12 00:52:04;;;;;;;20.37;3.83;;;8.20;99.90;;;;;;5080914;28;20296;-87
2023/01/12 00:54:31;;;;;;;21.23;3.87;;;8.30;99.90;;;;;;5098314;28;20286;-88
2023/01/12 00:56:57;;;;;;;20.53;4.07;;;8.20;99.90;;;;;;5114938;28;20285;-88
2023/01/12 00:59:23;;;;;;;22.60;4.03;;;8.20;99.90;;;;;;5114539;28;20293;-88
2023/01/12 01:01:48;;;;;;;26.90;4.57;;;8.20;99.90;;;;;;5098131;28;20063;-87
2023/01/12 01:04:17;;;;;;;32.23;5.90;;;8.20;99.90;;;;;;5115535;27;20039;-88
2023/01/12 01:06:43;;;;;;;31.37;4.97;;;8.20;99.90;;;;;;5080898;28;20044;-88
2023/01/12 01:09:09;;;;;;;30.57;5.00;;;8.20;99.90;;;;;;5114435;28;20281;-87
2023/01/12 01:11:35;;;;;;;30.73;4.50;;;8.20;99.90;;;;;;5080865;28;20052;-88
2023/01/12 01:14:01;;;;;;;30.03;5.60;;;8.20;99.90;;;;;;5114684;28;20079;-88
2023/01/12 01:16:28;;;;;;;37.80;5.60;;;8.20;99.90;;;;;;5114261;28;20281;-88
2023/01/12 01:18:54;;;;;;;28.80;5.20;;;8.20;99.90;;;;;;5114297;28;20293;-87
2023/01/12 01:21:20;;;;;;;34.37;5.43;;;8.20;99.90;;;;;;5115595;28;20334;-88
2023/01/12 01:23:46;;;;;;;25.73;4.33;;;8.20;99.90;;;;;;5114452;28;20281;-88
2023/01/12 01:26:15;;;;;;;34.63;4.93;;;8.20;99.90;;;;;;5114011;28;20044;-87
2023/01/12 01:28:41;;;;;;;30.80;5.60;;;8.20;99.90;;;;;;5114335;28;20046;-86
2023/01/12 01:31:13;;;;;;;27.60;4.43;;;8.20;99.90;;;;;;5097159;28;20360;-87
2023/01/12 01:33:39;;;;;;;33.33;6.03;;;8.20;99.90;;;;;;5115975;28;20294;-88
2023/01/12 01:36:05;;;;;;;23.37;5.03;;;8.20;99.90;;;;;;5096947;28;20286;-88
2023/01/12 01:38:32;;;;;;;28.67;5.53;;;8.20;99.90;;;;;;5114095;28;20364;-87
2023/01/12 01:40:58;;;;;;;32.70;4.73;;;8.20;99.90;;;;;;5113836;28;20281;-87
2023/01/12 01:43:26;;;;;;;25.67;4.93;;;8.20;99.90;;;;;;5113710;28;20294;-87
2023/01/12 01:46:05;;;;;;;21.77;4.57;;;8.20;99.90;;;;;;5097036;28;20324;-87
2023/01/12 01:48:34;;;;;;;24.07;5.03;;;8.20;99.90;;;;;;5113858;28;20407;-87
2023/01/12 01:51:07;;;;;;;27.47;3.97;;;8.20;99.90;;;;;;5114859;28;20292;-87
2023/01/12 01:53:36;;;;;;;27.97;4.90;;;8.20;99.90;;;;;;5113990;28;20720;-87
2023/01/12 01:56:08;;;;;;;30.60;6.83;;;8.20;99.90;;;;;;5114014;28;20290;-87
2023/01/12 01:58:56;;;;;;;22.30;5.77;;;8.20;99.90;;;;;;5113940;28;20389;-87
2023/01/12 02:01:22;;;;;;;27.63;7.10;;;8.30;99.90;;;;;;5112814;28;20285;-88
2023/01/12 02:03:51;;;;;;;31.90;5.07;;;8.30;99.90;;;;;;5096776;28;20292;-87
2023/01/12 02:06:17;;;;;;;28.83;4.93;;;8.30;99.90;;;;;;5112442;28;20070;-88
2023/01/12 02:08:50;;;;;;;34.67;5.83;;;8.30;99.90;;;;;;5114694;28;20281;-87
2023/01/12 02:17:02;;;;;;;36.47;6.13;;;8.30;99.90;;;;;;5113376;28;20415;-83
2023/01/12 02:19:45;;;;;;;32.23;4.87;;;8.30;99.90;;;;;;5113163;28;20313;-83
2023/01/12 02:22:29;;;;;;;39.97;5.87;;;8.40;99.90;;;;;;5114174;28;20285;-84
2023/01/12 02:25:15;;;;;;;32.87;6.03;;;8.30;99.90;;;;;;5096195;28;20817;-85
2023/01/12 02:27:59;;;;;;;36.03;6.47;;;8.40;99.90;;;;;;5101955;28;20289;-84
2023/01/12 02:31:06;;;;;;;29.43;5.00;;;8.40;99.90;;;;;;5113523;28;20346;-85
2023/01/12 02:33:31;;;;;;;;;;;8.40;99.90;;;;;;5071225;28;20287;-85
2023/01/12 02:36:11;;;;;;;37.47;5.13;;;8.40;99.90;;;;;;5038038;28;20015;-86
2023/01/12 02:38:41;;;;;;;29.60;6.37;;;8.40;99.90;;;;;;5087489;28;20066;-86
2023/01/12 02:44:18;;;;;;;31.83;5.57;;;8.40;99.90;;;;;;5112970;28;20314;-86
2023/01/12 02:46:48;;;;;;;37.70;6.00;;;8.40;99.90;;;;;;5113041;28;20305;-87
2023/01/12 02:49:17;;;;;;;37.03;5.93;;;8.40;99.90;;;;;;5112701;28;20386;-86
2023/01/12 02:51:51;;;;;;;34.30;5.60;;;8.40;99.90;;;;;;5113846;28;20285;-86
2023/01/12 02:54:19;;;;;;;34.37;6.43;;;8.40;99.90;;;;;;5113976;28;20273;-87
2023/01/12 02:56:50;;;;;;;32.97;5.53;;;8.40;99.90;;;;;;5113764;28;20282;-86
2023/01/12 02:59:32;;;;;;;41.00;6.03;;;8.40;99.90;;;;;;5095109;28;20293;-86
2023/01/12 03:02:35;;;;;;;43.57;5.57;;;8.50;99.90;;;;;;5112909;28;20292;-85
2023/01/12 03:05:01;;;;;;;36.03;6.27;;;8.40;99.90;;;;;;5109426;28;20315;-86
2023/01/12 03:07:45;;;;;;;38.97;6.63;;;8.50;99.90;;;;;;5094872;28;20293;-86
2023/01/12 03:10:33;;;;;;;35.27;6.10;;;8.50;99.90;;;;;;5112330;28;20788;-84
2023/01/12 03:13:05;;;;;;;34.67;6.17;;;8.50;99.90;;;;;;5095843;28;20338;-85
2023/01/12 03:15:34;;;;;;;36.47;6.53;;;8.50;99.90;;;;;;5112096;28;20339;-85
2023/01/12 03:18:07;;;;;;;46.27;6.47;;;8.50;99.90;;;;;;5112529;28;20281;-85
2023/01/12 03:20:37;;;;;;;30.27;7.10;;;8.50;99.90;;;;;;5095271;28;20290;-85
2023/01/12 03:23:16;;;;;;;38.07;5.73;;;8.50;99.90;;;;;;5112189;28;20342;-85
2023/01/12 03:25:44;;;;;;;37.83;5.67;;;8.50;99.90;;;;;;5112491;28;20297;-85
2023/01/12 03:28:13;;;;;;;35.00;6.23;;;8.60;99.90;;;;;;5112403;28;20338;-84
2023/01/12 03:30:55;;;;;;;36.83;5.67;;;8.50;99.90;;;;;;5112053;28;20384;-85
2023/01/12 03:33:22;;;;;;;33.00;5.47;;;8.60;99.90;;;;;;5112151;28;20373;-85
2023/01/12 03:36:12;;;;;;;39.07;6.63;;;8.60;99.90;;;;;;5113658;28;20315;-85
2023/01/12 03:39:05;;;;;;;39.37;6.50;;;8.60;99.90;;;;;;5112150;28;20289;-85
2023/01/12 03:42:06;;;;;;;37.73;6.33;;;8.60;99.90;;;;;;5112153;28;20293;-84
2023/01/12 03:44:58;;;;;;;42.77;6.27;;;8.70;99.90;;;;;;5096482;28;20289;-84
2023/01/12 03:47:28;;;;;;;32.50;6.23;;;8.70;99.90;;;;;;5116016;28;20290;-84
2023/01/12 03:50:08;;;;;;;42.23;6.17;;;8.60;99.90;;;;;;5116179;28;20307;-84
2023/01/12 03:52:38;;;;;;;37.33;6.83;;;8.70;99.90;;;;;;5115898;28;20312;-85
2023/01/12 03:55:06;;;;;;;36.20;6.13;;;8.70;99.90;;;;;;5116183;28;20452;-85
2023/01/12 03:57:33;;;;;;;35.30;5.80;;;8.70;99.90;;;;;;5098780;28;20294;-85
2023/01/12 04:00:01;;;;;;;36.50;6.70;;;8.70;99.90;;;;;;5099273;28;20784;-84
2023/01/12 04:02:27;;;;;;;37.83;5.47;;;8.70;99.90;;;;;;5115712;28;20285;-85
2023/01/12 04:04:53;;;;;;;34.07;5.13;;;8.70;99.90;;;;;;5115837;28;20277;-85
2023/01/12 04:07:19;;;;;;;31.53;5.70;;;8.70;99.90;;;;;;5098712;28;20048;-84
2023/01/12 04:09:44;;;;;;;43.60;6.87;;;8.70;99.90;;;;;;5115654;28;20150;-84
2023/01/12 04:12:10;;;;;;;38.33;6.27;;;8.70;99.90;;;;;;5115963;28;20040;-84
2023/01/12 04:14:39;;;;;;;29.70;4.77;;;8.70;99.90;;;;;;5115603;28;20056;-84
2023/01/12 04:17:07;;;;;;;24.33;4.13;;;8.70;99.90;;;;;;5116066;28;20395;-84
2023/01/12 04:19:32;;;;;;;23.87;3.93;;;8.70;99.90;;;;;;5115124;28;20664;-84
2023/01/12 04:24:42;;;;;;;21.27;4.03;;;8.70;99.90;;;;;;5115487;28;20899;-83
2023/01/12 04:27:08;;;;;;;23.70;3.60;;;8.70;99.90;;;;;;5116502;28;20297;-84
2023/01/12 04:29:34;;;;;;;20.17;3.97;;;8.70;99.90;;;;;;5116326;27;20057;-83
2023/01/12 04:32:00;;;;;;;28.33;4.87;;;8.70;99.90;;;;;;5116430;27;20285;-83
2023/01/12 04:34:26;;;;;;;24.30;3.80;;;8.70;99.90;;;;;;5114944;28;20052;-84
2023/01/12 04:36:51;;;;;;;20.67;4.30;;;8.70;99.90;;;;;;5098452;28;20043;-84
2023/01/12 04:39:17;;;;;;;25.87;3.70;;;8.70;99.90;;;;;;5115304;28;20043;-84
2023/01/12 04:41:43;;;;;;;17.43;3.83;;;8.60;99.90;;;;;;5116279;28;20096;-83
2023/01/12 04:44:08;;;;;;;20.53;3.70;;;8.60;99.90;;;;;;5115237;28;20472;-83
2023/01/12 04:46:34;;;;;;;20.17;3.03;;;8.60;99.90;;;;;;5114704;28;20051;-82
2023/01/12 04:49:00;;;;;;;21.03;3.70;;;8.60;99.90;;;;;;5114934;28;20050;-82
2023/01/12 04:51:25;;;;;;;19.50;3.50;;;8.60;99.90;;;;;;5114718;28;20496;-83
2023/01/12 04:53:52;;;;;;;17.20;4.07;;;8.50;99.90;;;;;;5097219;28;20148;-83
2023/01/12 04:56:18;;;;;;;16.50;2.43;;;8.60;99.90;;;;;;5115002;28;20043;-83
2023/01/12 04:58:44;;;;;;;18.47;3.63;;;8.50;99.90;;;;;;5114385;28;20277;-83
2023/01/12 05:01:19;;;;;;;15.30;2.70;;;8.50;99.90;;;;;;5114943;28;20660;-83
2023/01/12 05:03:45;;;;;;;17.27;3.45;;;8.50;99.90;;;;;;5115545;28;20368;-84
2023/01/12 05:06:12;;;;;;;11.27;2.60;;;8.50;99.90;;;;;;5114843;28;20043;-84
2023/01/12 05:11:27;;;;;;;14.37;2.57;;;8.60;99.90;;;;;;5114873;28;20377;-84
2023/01/12 05:13:54;;;;;;;15.30;3.07;;;8.50;99.90;;;;;;5114646;28;20292;-85
2023/01/12 05:16:20;;;;;;;10.57;2.20;;;8.50;99.90;;;;;;5097661;28;20291;-84
2023/01/12 05:18:46;;;;;;;14.60;2.27;;;8.50;99.90;;;;;;5114346;28;20715;-85
2023/01/12 05:21:16;;;;;;;13.03;2.33;;;8.50;99.90;;;;;;5114600;28;20373;-84
2023/01/12 05:23:43;;;;;;;8.17;2.13;;;8.50;99.90;;;;;;5114012;28;20094;-85
2023/01/12 05:26:10;;;;;;;11.13;2.00;;;8.50;99.90;;;;;;5080698;28;20309;-84
2023/01/12 05:28:36;;;;;;;12.40;2.53;;;8.50;99.90;;;;;;5114265;28;20286;-85
2023/01/12 05:31:12;;;;;;;10.63;2.40;;;8.50;99.90;;;;;;5097459;28;20374;-85
2023/01/12 05:33:40;;;;;;;9.30;2.90;;;8.50;99.90;;;;;;5114187;28;20603;-84
2023/01/12 05:36:07;;;;;;;9.37;2.53;;;8.50;99.90;;;;;;5115542;28;20349;-84
2023/01/12 05:38:33;;;;;;;9.73;2.77;;;8.50;99.90;;;;;;5096978;28;20285;-85
2023/01/12 05:41:03;;;;;;;8.67;2.97;;;8.50;99.90;;;;;;5080707;28;20603;-85
2023/01/12 05:46:15;;;;;;;11.07;2.80;;;8.50;99.90;;;;;;5114253;28;20388;-85
2023/01/12 05:48:41;;;;;;;9.43;2.33;;;8.50;99.90;;;;;;5113649;28;20277;-85
2023/01/12 05:51:08;;;;;;;9.90;2.53;;;8.50;99.90;;;;;;5080263;28;20293;-85
2023/01/12 05:53:34;;;;;;;6.87;2.40;;;8.60;99.90;;;;;;5114386;28;20765;-85
2023/01/12 05:56:06;;;;;;;6.50;2.20;;;8.50;99.90;;;;;;5114819;28;20364;-85
2023/01/12 05:58:32;;;;;;;5.80;1.90;;;8.60;99.90;;;;;;5113724;28;20480;-85
2023/01/12 06:00:57;;;;;;;5.60;1.60;;;8.60;99.90;;;;;;5097219;28;20322;-85
2023/01/12 06:03:23;;;;;;;4.87;1.50;;;8.60;99.90;;;;;;5113499;28;20392;-84
2023/01/12 06:05:53;;;;;;;4.23;1.60;;;8.60;99.90;;;;;;5112279;28;20046;-85
2023/01/12 06:08:19;;;;;;;5.57;1.60;;;8.60;99.90;;;;;;5113468;28;20047;-85
2023/01/12 06:10:45;;;;;;;6.90;1.70;;;8.70;99.90;;;;;;5113280;28;20292;-86
2023/01/12 06:16:03;;;;;;;4.13;1.30;;;8.70;99.90;;;;;;5113315;28;20142;-87
2023/01/12 06:18:35;;;;;;;4.75;1.50;;;8.70;99.90;;;;;;5114167;28;20686;-86
2023/01/12 06:21:02;;;;;;;4.90;1.37;;;8.70;99.90;;;;;;5113168;28;20086;-86
2023/01/12 06:23:28;;;;;;;4.93;1.70;;;8.80;99.90;;;;;;5114346;28;20280;-85
2023/01/12 06:25:54;;;;;;;6.33;1.60;;;8.80;99.90;;;;;;5113965;28;21146;-86
2023/01/12 06:28:20;;;;;;;5.07;1.90;;;8.80;99.90;;;;;;5096375;28;20286;-85
2023/01/12 06:30:58;;;;;;;10.03;2.07;;;8.90;99.90;;;;;;5113951;28;20039;-85
2023/01/12 06:33:24;;;;;;;11.07;3.00;;;8.90;99.90;;;;;;5113369;28;20051;-86
2023/01/12 06:35:50;;;;;;;14.23;3.90;;;8.90;99.90;;;;;;5112569;28;20365;-86
2023/01/12 06:38:16;;;;;;;16.03;4.33;;;8.90;99.90;;;;;;5114191;28;20281;-86
2023/01/12 06:40:42;;;;;;;12.27;3.60;;;9.00;99.90;;;;;;5113805;28;20772;-86
2023/01/12 06:43:07;;;;;;;13.47;3.80;;;9.00;99.90;;;;;;5113029;28;20510;-86
2023/01/12 06:45:33;;;;;;;16.13;3.80;;;9.00;99.90;;;;;;5112878;28;20044;-86
2023/01/12 06:47:59;;;;;;;21.23;4.13;;;9.10;99.90;;;;;;5113670;28;20054;-87
2023/01/12 06:50:25;;;;;;;22.40;4.43;;;9.10;99.90;;;;;;5112924;28;20154;-87
2023/01/12 06:52:51;;;;;;;28.90;4.87;;;9.20;99.90;;;;;;5112656;28;20051;-87
2023/01/12 06:55:17;;;;;;;26.20;4.80;;;9.20;99.90;;;;;;5112770;28;20424;-87
2023/01/12 06:57:43;;;;;;;30.47;4.30;;;9.30;99.90;;;;;;5113272;28;20392;-87
2023/01/12 07:00:12;;;;;;;30.83;4.63;;;9.30;99.90;;;;;;5113715;28;20293;-87
2023/01/12 07:02:38;;;;;;;32.73;5.07;;;9.40;99.90;;;;;;5112442;28;20104;-87
2023/01/12 07:05:04;;;;;;;28.90;4.80;;;9.50;99.90;;;;;;5112746;28;20281;-87
2023/01/12 07:07:30;;;;;;;28.33;5.60;;;9.50;99.90;;;;;;5112442;28;20157;-86
2023/01/12 07:09:56;;;;;;;34.27;5.10;;;9.60;99.90;;;;;;5112355;28;20437;-87
2023/01/12 07:12:22;;;;;;;30.53;6.17;;;9.70;99.90;;;;;;5095751;28;20051;-86
2023/01/12 07:14:47;;;;;;;33.23;4.77;;;9.70;99.90;;;;;;5113369;28;20048;-87
2023/01/12 07:17:13;;;;;;;28.53;5.00;;;9.70;99.90;;;;;;5113359;28;20039;-85
2023/01/12 07:19:39;;;;;;;33.23;5.90;;;9.80;99.90;;;;;;5112748;28;20403;-86
2023/01/12 07:22:05;;;;;;;40.63;5.67;;;9.80;99.90;;;;;;5112243;28;20055;-85
2023/01/12 07:24:30;;;;;;;34.90;5.57;;;9.80;99.90;;;;;;5112693;28;20174;-86
2023/01/12 07:26:57;;;;;;;35.17;4.90;;;9.80;99.90;;;;;;5111878;28;20040;-86
2023/01/12 07:29:24;;;;;;;31.43;5.10;;;9.80;99.90;;;;;;5112362;28;20070;-86
2023/01/12 07:31:50;;;;;;;38.00;7.03;;;9.90;99.90;;;;;;5112291;28;20320;-87
2023/01/12 07:34:16;;;;;;;36.43;5.87;;;9.90;99.90;;;;;;5112548;28;20317;-86
2023/01/12 07:36:41;;;;;;;32.00;4.77;;;9.90;99.90;;;;;;5112170;28;20093;-86
2023/01/12 07:39:08;;;;;;;31.20;4.97;;;9.80;99.90;;;;;;5095297;28;20269;-87
2023/01/12 07:44:18;;;;;;;35.23;5.47;;;9.90;99.90;;;;;;5112564;28;20274;-87
2023/01/12 07:46:44;;;;;;;30.73;5.63;;;9.90;99.90;;;;;;5112948;28;20293;-87
2023/01/12 07:49:10;;;;;;;36.13;5.53;;;9.90;99.90;;;;;;5095355;28;20039;-87
2023/01/12 07:51:35;;;;;;;44.93;6.37;;;9.90;99.90;;;;;;5095375;28;20085;-87
2023/01/12 07:54:01;;;;;;;41.77;5.60;;;9.90;99.90;;;;;;5111662;28;20070;-87
2023/01/12 07:56:27;;;;;;;32.53;5.43;;;10.00;99.90;;;;;;5113219;28;20126;-87
2023/01/12 07:58:52;;;;;;;34.43;5.60;;;9.90;99.90;;;;;;5078215;28;20388;-87
2023/01/12 08:01:18;;;;;;;31.77;5.43;;;10.00;99.90;;;;;;5112301;28;20098;-86
2023/01/12 08:03:44;;;;;;;34.37;4.63;;;10.00;99.90;;;;;;5112037;28;20044;-86
2023/01/12 08:06:09;;;;;;;40.67;5.67;;;10.00;99.90;;;;;;5113095;28;20372;-86
2023/01/12 08:08:35;;;;;;;34.33;5.33;;;10.00;99.90;;;;;;5111602;28;20062;-85
2023/01/12 08:11:06;;;;;;;35.00;5.47;;;10.00;99.90;;;;;;5094901;28;20047;-86
2023/01/12 08:13:33;;;;;;;42.47;6.07;;;10.00;99.90;;;;;;5112027;28;20277;-86
2023/01/12 08:16:05;;;;;;;40.03;5.90;;;10.10;99.90;;;;;;5112710;28;20353;-87
2023/01/12 08:18:47;;;;;;;45.80;6.40;;;10.10;99.90;;;;;;5111766;28;20286;-87
2023/01/12 08:21:19;;;;;;;30.67;4.97;;;10.10;99.90;;;;;;5112191;28;20292;-87
2023/01/12 08:23:48;;;;;;;31.37;5.17;;;10.10;99.90;;;;;;5113153;28;20381;-87
2023/01/12 08:26:22;;;;;;;29.83;5.23;;;10.10;99.90;;;;;;5113175;28;20360;-87
2023/01/12 08:29:02;;;;;;;27.43;4.57;;;10.10;99.90;;;;;;5112842;28;20292;-86
2023/01/12 08:31:30;;;;;;;29.90;5.63;;;10.10;99.90;;;;;;5115514;28;20342;-86
2023/01/12 08:33:56;;;;;;;28.17;4.57;;;10.10;99.90;;;;;;5115219;28;20286;-85
2023/01/12 08:36:24;;;;;;;36.20;5.13;;;10.20;99.90;;;;;;5098458;28;20792;-86
2023/01/12 08:38:50;;;;;;;38.23;5.23;;;10.20;99.90;;;;;;5081383;28;20047;-85
2023/01/12 08:41:35;;;;;;;23.47;4.20;;;10.20;99.90;;;;;;5098077;28;20304;-85
2023/01/12 08:44:12;;;;;;;25.98;3.97;;;10.20;99.90;;;;;;5115181;28;20055;-85
2023/01/12 08:46:38;;;;;;;29.33;4.60;;;10.20;99.90;;;;;;5115233;28;20097;-86
2023/01/12 08:49:08;;;;;;;26.67;4.53;;;10.20;99.90;;;;;;5114972;28;20790;-84
2023/01/12 08:51:34;;;;;;;25.77;4.43;;;10.20;99.90;;;;;;5116438;28;20040;-86
2023/01/12 08:54:01;;;;;;;30.50;4.80;;;10.20;99.90;;;;;;5097958;28;20796;-80
2023/01/12 08:56:26;;;;;;;27.30;3.93;;;10.20;99.90;;;;;;5116343;28;20179;-84
2023/01/12 08:58:52;;;;;;;21.70;4.00;;;10.20;99.90;;;;;;5097405;28;20780;-85
2023/01/12 09:01:19;;;;;;;35.43;4.63;;;10.20;99.90;;;;;;5115612;28;20051;-85
2023/01/12 09:03:47;;;;;;;29.13;4.40;;;10.30;99.90;;;;;;5114809;28;20043;-86
2023/01/12 09:06:22;;;;;;;31.13;4.13;;;10.30;99.90;;;;;;5115619;28;20308;-85
2023/01/12 09:08:51;;;;;;;;;;;10.30;99.90;;;;;;5116384;28;20289;-85
2023/01/12 09:11:17;;;;;;;30.07;4.37;;;10.30;99.90;;;;;;5115743;27;20388;-87
2023/01/12 09:13:43;;;;;;;29.57;4.43;;;10.30;99.90;;;;;;5114590;28;20277;-88
2023/01/12 09:16:12;;;;;;;32.70;4.70;;;10.30;99.90;;;;;;5115380;28;20077;-87
2023/01/12 09:18:38;;;;;;;29.00;4.63;;;10.30;99.90;;;;;;5115604;27;20273;-87
2023/01/12 09:21:09;;;;;;;35.97;4.97;;;10.40;99.90;;;;;;5115363;28;20290;-87
2023/01/12 09:23:36;;;;;;;29.70;5.00;;;10.40;99.90;;;;;;5115711;28;20384;-86
2023/01/12 09:26:04;;;;;;;29.27;4.10;;;10.30;99.90;;;;;;5115123;28;20294;-85
2023/01/12 09:28:30;;;;;;;29.90;4.20;;;10.40;99.90;;;;;;5114751;28;20321;-86
2023/01/12 09:31:00;;;;;;;24.70;4.17;;;10.40;99.90;;;;;;5097186;28;20285;-87
2023/01/12 09:33:26;;;;;;;20.90;3.80;;;10.40;99.90;;;;;;5115368;28;20277;-87
2023/01/12 09:35:52;;;;;;;28.43;4.00;;;10.40;99.90;;;;;;5115257;28;20269;-86
2023/01/12 09:38:17;;;;;;;23.90;3.57;;;10.40;99.90;;;;;;5113824;28;20388;-85
2023/01/12 09:40:43;;;;;;;23.57;3.40;;;10.40;99.90;;;;;;5115095;28;20039;-87
2023/01/12 09:48:42;;;;;;;20.40;3.77;;;10.50;99.90;;;;;;5114112;28;20364;-87
2023/01/12 09:51:34;;;;;;;20.73;3.80;;;10.50;99.90;;;;;;5115081;28;20356;-87
2023/01/12 09:54:01;;;;;;;23.30;4.27;;;10.50;99.90;;;;;;5109823;28;20321;-88
2023/01/12 09:56:35;;;;;;;25.77;4.63;;;10.50;99.90;;;;;;5096950;28;20294;-83
2023/01/12 09:59:22;;;;;;;23.60;5.03;;;10.60;99.90;;;;;;5114954;28;20611;-86
2023/01/12 10:01:51;;;;;;;24.73;3.77;;;10.60;99.90;;;;;;5113756;28;20483;-86
2023/01/12 10:04:17;;;;;;;20.47;3.63;;;10.60;99.90;;;;;;5114503;28;20360;-86
2023/01/12 10:06:43;;;;;;;22.27;3.87;;;10.60;99.90;;;;;;5113562;28;20388;-87
2023/01/12 10:09:15;;;;;;;26.70;3.93;;;10.60;99.90;;;;;;5113974;28;20445;-87
2023/01/12 10:11:46;;;;;;;30.50;4.87;;;10.60;99.90;;;;;;5113750;28;20088;-86
2023/01/12 10:14:42;;;;;;;22.80;4.40;;;10.60;99.90;;;;;;5114030;28;20678;-87
2023/01/12 10:17:29;;;;;;;29.50;4.57;;;10.60;99.90;;;;;;5113229;28;20327;-88
2023/01/12 10:20:07;;;;;;;26.13;4.40;;;10.70;99.90;;;;;;5111816;28;20280;-88
2023/01/12 10:22:47;;;;;;;31.07;4.60;;;10.60;99.90;;;;;;5112150;28;20683;-87
2023/01/12 10:25:13;;;;;;;30.10;4.43;;;10.60;99.90;;;;;;5113936;28;20281;-87
2023/01/12 10:27:42;;;;;;;23.77;4.50;;;10.70;99.90;;;;;;5112831;28;20418;-85
2023/01/12 10:30:19;;;;;;;25.97;3.70;;;10.70;99.90;;;;;;5112525;28;20132;-88
2023/01/12 10:32:45;;;;;;;23.03;4.07;;;10.70;99.90;;;;;;5124758;27;20293;-87
2023/01/12 10:35:17;;;;;;;20.97;4.10;;;10.70;99.90;;;;;;5112610;28;20293;-84
2023/01/12 10:37:44;;;;;;;24.40;5.03;;;10.70;99.90;;;;;;5114076;28;20282;-85
2023/01/12 10:40:30;;;;;;;27.37;4.20;;;10.70;99.90;;;;;;5113884;28;20284;-85
2023/01/12 10:43:30;;;;;;;23.37;4.27;;;10.70;99.90;;;;;;5114153;28;20278;-85
2023/01/12 10:46:15;;;;;;;24.33;4.30;;;10.80;99.90;;;;;;5113215;28;20369;-76
2023/01/12 10:48:44;;;;;;;24.25;3.70;;;10.70;99.90;;;;;;5114045;28;20286;-76
2023/01/12 10:51:22;;;;;;;20.03;5.03;;;10.70;99.90;;;;;;5113510;28;20043;-76
2023/01/12 10:54:16;;;;;;;22.33;3.70;;;10.70;99.90;;;;;;5113593;28;20281;-76
2023/01/12 10:56:52;;;;;;;25.03;4.23;;;10.80;99.90;;;;;;5114144;28;20278;-76
2023/01/12 10:59:20;;;;;;;22.60;3.87;;;10.80;99.90;;;;;;5113562;28;20768;-76
2023/01/12 11:02:01;;;;;;;20.23;3.93;;;10.80;99.90;;;;;;5112768;28;20284;-76
2023/01/12 11:04:29;;;;;;;19.33;3.50;;;10.90;99.90;;;;;;5112077;28;20668;-76
2023/01/12 11:07:15;;;;;;;30.60;4.33;;;10.80;99.90;;;;;;5113346;28;20301;-75
2023/01/12 11:09:42;;;;;;;27.20;4.63;;;10.90;99.90;;;;;;5113855;28;20574;-81
2023/01/12 11:12:20;;;;;;;26.07;4.33;;;10.90;99.90;;;;;;5113377;28;20285;-78
2023/01/12 11:15:01;;;;;;;26.53;4.03;;;10.90;99.90;;;;;;5112755;28;20729;-77
2023/01/12 11:17:35;;;;;;;20.00;4.07;;;10.90;99.90;;;;;;5113381;28;20278;-77
2023/01/12 11:20:13;;;;;;;24.10;4.18;;;10.90;99.90;;;;;;5113559;28;20307;-78
2023/01/12 11:22:41;;;;;;;23.57;3.77;;;10.90;99.90;;;;;;5114168;28;20075;-77
2023/01/12 11:25:13;;;;;;;23.60;4.17;;;10.90;99.90;;;;;;5113157;28;20274;-79
2023/01/12 11:27:58;;;;;;;22.83;4.57;;;10.90;99.90;;;;;;5112768;28;20606;-80
2023/01/12 11:30:43;;;;;;;23.00;4.43;;;11.00;99.90;;;;;;5112027;28;20360;-84
2023/01/12 11:33:36;;;;;;;20.55;3.97;;;11.00;99.90;;;;;;5113172;28;20390;-81
2023/01/12 11:36:08;;;;;;;21.00;3.80;;;11.00;99.90;;;;;;5113535;28;20051;-85
2023/01/12 11:38:49;;;;;;;24.73;3.90;;;11.00;99.90;;;;;;5113360;28;20281;-87
2023/01/12 11:43:48;;;;;;;25.17;5.07;;;11.00;99.90;;;;;;5113120;28;20661;-87
2023/01/12 11:44:38;;;;;;;19.37;3.73;;;11.10;99.90;;;;;;5113536;28;20285;-87
2023/01/12 11:47:09;;;;;;;20.77;3.77;;;11.00;99.90;;;;;;5113356;28;20408;-88
2023/01/12 11:49:41;;;;;;;23.17;3.60;;;11.10;99.90;;;;;;5112515;28;20293;-87
2023/01/12 11:52:09;;;;;;;26.83;4.10;;;11.10;99.90;;;;;;5113360;28;20622;-86
2023/01/12 11:54:37;;;;;;;19.83;3.03;;;11.10;99.90;;;;;;5112567;28;20286;-87
2023/01/12 11:57:26;;;;;;;22.57;3.87;;;11.10;99.90;;;;;;5113269;28;20303;-87
2023/01/12 12:00:00;;;;;;;23.83;3.60;;;11.10;99.90;;;;;;5113326;28;20273;-82
2023/01/12 12:02:44;;;;;;;24.63;4.57;;;11.10;99.90;;;;;;5111754;28;20680;-82
2023/01/12 12:05:26;;;;;;;19.93;4.13;;;11.10;99.90;;;;;;5115490;28;20669;-78
2023/01/12 12:08:15;;;;;;;22.57;4.03;;;11.10;99.90;;;;;;5116731;28;20619;-84
2023/01/12 12:11:07;;;;;;;22.17;4.40;;;11.10;99.90;;;;;;5117155;28;20281;-86
2023/01/12 12:14:04;;;;;;;25.00;4.30;;;11.20;99.90;;;;;;5115956;28;20302;-90
2023/01/12 12:17:05;;;;;;;22.57;4.63;;;11.10;99.90;;;;;;5116749;28;20270;-84
2023/01/12 12:20:19;;;;;;;21.37;4.23;;;11.10;99.90;;;;;;5104870;28;20309;-82
2023/01/12 12:23:09;;;;;;;22.13;3.57;;;11.10;99.90;;;;;;5096566;28;20366;-84
2023/01/12 12:25:51;;;;;;;23.63;4.00;;;11.20;99.90;;;;;;5116337;28;20311;-83
2023/01/12 12:28:46;;;;;;;20.17;3.93;;;11.10;99.90;;;;;;5116465;27;20315;-81
2023/01/12 12:31:23;;;;;;;18.87;4.07;;;11.20;99.90;;;;;;5116609;28;20278;-83
2023/01/12 12:34:02;;;;;;;23.97;5.63;;;11.20;99.90;;;;;;5115875;28;20639;-81
2023/01/12 12:36:40;;;;;;;27.73;4.13;;;11.20;99.90;;;;;;5116360;28;20269;-82
2023/01/12 12:39:12;;;;;;;23.30;4.20;;;11.20;99.90;;;;;;5116456;28;20292;-83
2023/01/12 12:45:17;;;;;;;24.35;4.88;;;11.10;99.90;;;;;;5114902;28;20289;-80
2023/01/12 12:47:48;;;;;;;23.50;4.40;;;11.10;99.90;;;;;;5116557;28;20500;-75
2023/01/12 12:50:22;;;;;;;29.67;4.10;;;11.10;99.90;;;;;;5114956;28;20313;-86
2023/01/12 12:53:11;;;;;;;28.30;4.60;;;11.10;99.90;;;;;;5116265;28;20281;-82
2023/01/12 12:55:37;;;;;;;23.80;4.07;;;11.10;99.90;;;;;;5104092;28;20281;-84
2023/01/12 12:58:24;;;;;;;23.63;4.53;;;11.10;99.90;;;;;;5116092;27;20317;-82
2023/01/12 13:00:52;;;;;;;24.10;4.10;;;11.10;99.90;;;;;;5116309;28;20625;-83
2023/01/12 13:03:36;;;;;;;21.67;4.57;;;11.10;99.90;;;;;;5115653;28;20396;-82
2023/01/12 13:06:31;;;;;;;26.45;4.15;;;11.10;99.90;;;;;;5115513;28;20757;-81
2023/01/12 13:08:58;;;;;;;27.00;5.10;;;11.10;99.90;;;;;;5114357;28;20116;-85
2023/01/12 13:11:47;;;;;;;24.97;4.30;;;11.10;99.90;;;;;;5115561;28;20310;-82
2023/01/12 13:14:27;;;;;;;23.73;5.03;;;11.10;99.90;;;;;;5115730;28;20324;-83
2023/01/12 13:17:18;;;;;;;25.93;5.43;;;11.10;99.90;;;;;;5115495;28;20281;-82
2023/01/12 13:19:49;;;;;;;29.50;4.20;;;11.20;99.90;;;;;;5115805;28;20359;-81
2023/01/12 13:22:36;;;;;;;33.93;6.13;;;11.10;99.90;;;;;;5115587;28;20654;-79
2023/01/12 13:25:22;;;;;;;26.73;4.40;;;11.10;99.90;;;;;;5114664;28;20304;-79
2023/01/12 13:27:55;;;;;;;24.07;4.40;;;11.10;99.90;;;;;;5115450;28;20634;-80
2023/01/12 13:30:27;;;;;;;29.47;4.37;;;11.10;99.90;;;;;;5115326;28;20286;-80
2023/01/12 13:32:59;;;;;;;32.03;4.63;;;11.10;99.90;;;;;;5114383;28;20362;-81
2023/01/12 13:35:32;;;;;;;30.30;5.40;;;11.10;99.90;;;;;;5114007;28;20324;-77
2023/01/12 13:38:35;;;;;;;24.47;4.33;;;11.10;99.90;;;;;;5115173;28;20322;-80
2023/01/12 13:41:13;;;;;;;32.37;5.27;;;11.10;99.90;;;;;;5094060;28;20372;-80
2023/01/12 13:43:59;;;;;;;23.03;4.50;;;11.10;99.90;;;;;;5096838;28;20290;-83
2023/01/12 13:46:27;;;;;;;30.83;4.87;;;11.10;99.90;;;;;;5088854;28;20777;-81